Flight Track Log - Related Links

Times and Time Zones

All times are in EDT time to prevent confusion due to time zone crossing. See the AIP5009 flight status page for this flight to view local times or setup timezone preferences in your user account.

Time Position Orientation Groundspeed Altitude Reporting Facility
EDT Latitude Longitude Course Direction KTS MPH feet Rate Location/Type
Fri 04:53:12 AM 46.9297 -114.1186 109° East 129 148 4,700  Level Salt Lake Center
Fri 04:54:13 AM 46.8997 -114.1372 203° Southwest 160 184 7,800 2,628 Climbing Salt Lake Center
Fri 04:55:13 AM 46.8878 -114.0694 104° East 183 211 10,000 2,400 Climbing Salt Lake Center
Fri 04:56:13 AM 46.8736 -113.9881 104° East 191 220 12,600 2,400 Climbing Salt Lake Center
Fri 04:57:00 AM 46.8202 -113.5400 107° East  Level Estimated
Fri 04:57:13 AM 46.8558 -113.9114 109° East 199 229 14,800  Level Salt Lake Center
Fri 04:58:00 AM 46.7992 -113.4506 109° East  Level FlightAware Approximate
Fri 04:58:14 AM 46.8372 -113.8317 109° East 207 238 16,800  Level Salt Lake Center
Fri 04:59:14 AM 46.8206 -113.7461 106° East 219 252 18,500 1,650 Climbing Salt Lake Center
Fri 05:00:14 AM 46.8172 -113.6644 93° East 226 260 20,100 1,537 Climbing Salt Lake Center
Fri 05:01:15 AM 46.8031 -113.5750 103° East 228 262 21,600 1,388 Climbing Salt Lake Center
Fri 05:02:15 AM 46.7878 -113.4850 104° East 229 264 22,900 750 Climbing Salt Lake Center
Fri 05:03:15 AM 46.7725 -113.3886 103° East 245 282 23,100 100 Climbing Salt Lake Center
Fri 05:04:15 AM 46.7578 -113.2817 101° East 268 308 23,100  Level Salt Lake Center
Fri 05:05:15 AM 46.7372 -113.1775 106° East 269 310 23,100 -50 Level Salt Lake Center
Fri 05:06:16 AM 46.7169 -113.0733 106° East 269 310 23,000 -50 Descending Salt Lake Center
Fri 05:07:16 AM 46.6972 -112.9681 105° East 271 312 23,000  Level Salt Lake Center
Fri 05:08:16 AM 46.6806 -112.8519 102° East 268 308 23,000 50 Level Salt Lake Center
Fri 05:09:16 AM 46.6539 -112.7508 111° Southeast 268 308 23,100  Climbing Salt Lake Center
Fri 05:10:17 AM 46.6369 -112.6439 103° East 270 311 23,000  Descending Salt Lake Center
Fri 05:11:17 AM 46.6264 -112.5314 98° East 279 321 23,100 50 Climbing Salt Lake Center
Fri 05:12:17 AM 46.6050 -112.4244 106° East 278 320 23,100  Level Salt Lake Center
Fri 05:13:17 AM 46.5811 -112.3164 108° East 279 321 23,100 -50 Level Salt Lake Center
Fri 05:14:18 AM 46.5622 -112.2053 104° East 281 323 23,000  Descending Salt Lake Center
Fri 05:15:18 AM 46.5414 -112.0942 105° East 284 327 23,100 100 Climbing Salt Lake Center
Fri 05:16:18 AM 46.5272 -111.9806 100° East 286 329 23,200  Climbing Salt Lake Center
Fri 05:17:18 AM 46.5083 -111.8689 104° East 288 331 23,100 -50 Descending Salt Lake Center
Fri 05:18:18 AM 46.4872 -111.7603 106° East 283 326 23,100  Level Salt Lake Center
Fri 05:19:19 AM 46.4719 -111.6475 101° East 284 327 23,100 -50 Level Salt Lake Center
Fri 05:20:19 AM 46.4639 -111.5314 96° East 289 333 23,000 -50 Descending Salt Lake Center
Fri 05:21:19 AM 46.4508 -111.4178 99° East 290 334 23,000  Level Salt Lake Center
Fri 05:22:19 AM 46.4333 -111.3089 103° East 286 329 23,000  Level Salt Lake Center
Fri 05:23:19 AM 46.4189 -111.2050 101° East 275 316 23,000 50 Level Salt Lake Center
Fri 05:24:20 AM 46.4111 -111.0903 96° East 285 328 23,100 50 Climbing Salt Lake Center
Fri 05:25:20 AM 46.3861 -110.9842 109° East 282 325 23,100 -100 Level Salt Lake Center
Fri 05:26:20 AM 46.3500 -110.8728 115° Southeast 284 327 22,900 -50 Descending Salt Lake Center
Fri 05:27:20 AM 46.3222 -110.7681 111° Southeast 281 323 23,000 50 Climbing Salt Lake Center
Fri 05:28:20 AM 46.2922 -110.6656 113° Southeast 279 321 23,000 -50 Level Salt Lake Center
Fri 05:29:21 AM 46.2800 -110.5533 99° East 283 326 22,900  Descending Salt Lake Center
Fri 05:30:21 AM 46.2567 -110.4489 108° East 278 320 23,000 50 Climbing Salt Lake Center
Fri 05:31:21 AM 46.2303 -110.3439 110° East 277 319 23,000 -200 Level Salt Lake Center
Fri 05:32:21 AM 46.2006 -110.2369 112° Southeast 287 330 22,600 -650 Descending Salt Lake Center
Fri 05:33:21 AM 46.1664 -110.1283 114° Southeast 295 339 21,700 -850 Descending Salt Lake Center
Fri 05:34:21 AM 46.1425 -110.0094 106° East 306 352 20,900 -694 Descending Salt Lake Center
Fri 05:35:22 AM 46.1253 -109.8911 102° East 303 349 20,300 -694 Descending Salt Lake Center
Fri 05:36:22 AM 46.1056 -109.7700 103° East 301 346 19,500 -850 Descending Salt Lake Center
Fri 05:37:22 AM 46.0758 -109.6519 110° East 294 338 18,600 -700 Descending Salt Lake Center
Fri 05:38:22 AM 46.0489 -109.5433 110° East 290 334 18,100 -600 Descending Salt Lake Center
Fri 05:39:22 AM 46.0211 -109.4364 110° East 288 331 17,400 -744 Descending Salt Lake Center
Fri 05:40:23 AM 45.9983 -109.3278 107° East 287 330 16,600 -893 Descending Salt Lake Center
Fri 05:41:23 AM 45.9761 -109.2161 106° East 293 337 15,600 -850 Descending Salt Lake Center
Fri 05:42:23 AM 45.9511 -109.1064 108° East 293 337 14,900 -950 Descending Salt Lake Center
Fri 05:43:23 AM 45.9236 -108.9889 109° East 289 333 13,700 -1,400 Descending Salt Lake Center
Fri 05:44:23 AM 45.8975 -108.8789 109° East 294 338 12,100 -1,983 Descending Salt Lake Center
Fri 05:45:24 AM 45.8711 -108.7686 109° East 295 339 9,700 -2,579 Descending Salt Lake Center
Fri 05:46:24 AM 45.8450 -108.6686 111° Southeast 278 320 6,900 -2,550 Descending Salt Lake Center
Fri 05:47:24 AM 45.8239 -108.5944 112° Southeast 207 238 4,600 -1,650 Descending Salt Lake Center
Fri 05:48:24 AM 45.8086 -108.5406 112° Southeast 144 166 3,600 -1,000 Descending Salt Lake Center
Fri 05:50:00 AM 45.8077 -108.5429 110° East  Level Estimated

Login

Don't have an account? Register now (free) for customized features, flight alerts, and more!